Time;durP1;ratioP1;P1;durP2;ratioP2;P2;SDS_P1;SDS_P2;PMS_P1;PMS_P2;Temp;Humidity;BMP_temperature;BMP_pressure;BME280_temperature;BME280_humidity;BME280_pressure;Samples;Min_cycle;Max_cycle;Signal;HPM_P1;HPM_P2
2022/01/11 00:01:42;;;;;;;;;;;0.60;87.20;;;;;;5009011;28;19966;-79
2022/01/11 00:04:12;;;;;;;;;;;0.60;87.40;;;;;;5027220;28;19917;-80
2022/01/11 00:06:45;;;;;;;;;;;0.60;87.30;;;;;;5016428;28;19928;-80
2022/01/11 00:09:34;;;;;;;;;;;0.60;87.30;;;;;;5012729;28;19917;-80
2022/01/11 00:12:00;;;;;;;;;;;0.60;87.30;;;;;;5004610;28;19913;-80
2022/01/11 00:14:26;;;;;;;;;;;0.70;87.80;;;;;;5022949;28;19913;-80
2022/01/11 00:16:51;;;;;;;;;;;0.70;87.40;;;;;;5026832;28;19924;-79
2022/01/11 00:19:17;;;;;;;;;;;0.70;87.50;;;;;;5031533;28;19928;-80
2022/01/11 00:21:47;;;;;;;;;;;0.70;87.50;;;;;;5004009;28;19968;-81
2022/01/11 00:24:33;;;;;;;;;;;0.60;87.30;;;;;;5015143;28;19923;-81
2022/01/11 00:27:04;;;;;;;;;;;0.60;87.50;;;;;;5013027;28;19913;-80
2022/01/11 00:29:30;;;;;;;;;;;0.60;87.70;;;;;;5014145;28;20301;-79
2022/01/11 00:32:00;;;;;;;;;;;0.60;87.50;;;;;;5018534;28;19913;-79
2022/01/11 00:34:36;;;;;;;;;;;0.60;88.00;;;;;;5010904;28;19913;-78
2022/01/11 00:37:02;;;;;;;;;;;0.60;87.60;;;;;;5016861;28;19966;-79
2022/01/11 00:39:27;;;;;;;;;;;0.60;87.80;;;;;;5030180;28;20001;-80
2022/01/11 00:41:53;;;;;;;;;;;0.60;87.60;;;;;;5025657;28;20396;-80
2022/01/11 00:44:18;;;;;;;;;;;0.60;87.60;;;;;;5012077;28;19921;-79
2022/01/11 00:46:44;;;;;;;;;;;0.60;87.50;;;;;;5020087;28;20348;-78
2022/01/11 00:49:10;;;;;;;;;;;0.50;87.10;;;;;;5012115;28;19917;-79
2022/01/11 00:51:35;;;;;;;;;;;0.40;86.90;;;;;;5019080;28;19920;-80
2022/01/11 00:54:01;;;;;;;;;;;0.40;86.70;;;;;;5020446;28;19997;-80
2022/01/11 00:56:26;;;;;;;;;;;0.30;86.60;;;;;;5012432;28;20380;-79
2022/01/11 00:58:52;;;;;;;;;;;0.30;86.70;;;;;;5030381;28;19983;-80
2022/01/11 01:01:18;;;;;;;;;;;0.20;87.10;;;;;;5012892;28;19981;-81
2022/01/11 01:03:43;;;;;;;;;;;0.20;87.20;;;;;;5014921;28;19924;-81
2022/01/11 01:06:09;;;;;;;;;;;0.20;87.10;;;;;;5016759;28;19949;-80
2022/01/11 01:08:34;;;;;;;;;;;0.20;87.10;;;;;;5016619;28;19948;-80
2022/01/11 01:11:00;;;;;;;;;;;0.30;87.00;;;;;;5033226;28;19921;-80
2022/01/11 01:13:26;;;;;;;;;;;0.30;86.70;;;;;;5036180;28;19913;-80
2022/01/11 01:15:52;;;;;;;;;;;0.20;86.60;;;;;;5029794;28;19913;-80
2022/01/11 01:18:21;;;;;;;;;;;0.20;86.50;;;;;;5019357;28;19940;-80
2022/01/11 01:20:47;;;;;;;;;;;0.30;87.10;;;;;;5029063;28;19936;-81
2022/01/11 01:23:13;;;;;;;;;;;0.30;87.30;;;;;;5028468;28;19947;-81
2022/01/11 01:25:39;;;;;;;;;;;0.30;87.60;;;;;;5043329;28;19939;-80
2022/01/11 01:28:06;;;;;;;;;;;0.30;87.30;;;;;;5039548;28;19901;-80
2022/01/11 01:30:31;;;;;;;;;;;0.30;87.30;;;;;;5023706;28;20622;-80
2022/01/11 01:32:57;;;;;;;;;;;0.20;87.40;;;;;;5025915;28;20012;-81
2022/01/11 01:35:27;;;;;;;;;;;0.20;87.30;;;;;;5012373;28;19960;-80
2022/01/11 01:37:52;;;;;;;;;;;0.30;87.40;;;;;;5029627;28;19996;-80
2022/01/11 01:40:18;;;;;;;;;;;0.30;87.40;;;;;;5017315;28;20397;-79
2022/01/11 01:42:44;;;;;;;;;;;0.30;86.90;;;;;;5018949;28;20409;-81
2022/01/11 01:45:10;;;;;;;;;;;0.20;86.90;;;;;;5019698;28;19917;-82
2022/01/11 01:47:36;;;;;;;;;;;0.20;87.10;;;;;;5028056;28;19966;-81
2022/01/11 01:50:03;;;;;;;;;;;0.10;87.10;;;;;;5009287;28;19945;-81
2022/01/11 01:52:28;;;;;;;;;;;0.10;87.50;;;;;;5017170;28;19913;-81
2022/01/11 01:54:54;;;;;;;;;;;0.20;87.50;;;;;;5013558;28;19933;-81
2022/01/11 01:57:19;;;;;;;;;;;0.20;87.20;;;;;;5003155;28;19914;-81
2022/01/11 01:59:45;;;;;;;;;;;0.10;87.10;;;;;;5008788;28;19913;-81
2022/01/11 02:02:12;;;;;;;;;;;0.10;87.30;;;;;;5003492;28;19971;-79
2022/01/11 02:04:37;;;;;;;;;;;0.20;87.30;;;;;;5013405;28;19949;-79
2022/01/11 02:07:04;;;;;;;;;;;0.20;87.80;;;;;;5015468;28;19914;-80
2022/01/11 02:09:30;;;;;;;;;;;0.30;87.90;;;;;;5027815;28;20016;-80
2022/01/11 02:11:55;;;;;;;;;;;0.30;88.20;;;;;;5026197;28;20067;-80
2022/01/11 02:14:21;;;;;;;;;;;0.30;88.00;;;;;;5017977;28;19976;-79
2022/01/11 02:16:47;;;;;;;;;;;0.30;87.70;;;;;;5014048;28;19926;-77
2022/01/11 02:19:12;;;;;;;;;;;0.30;87.90;;;;;;5024896;28;19920;-80
2022/01/11 02:21:38;;;;;;;;;;;0.50;88.00;;;;;;5035207;28;20281;-80
2022/01/11 02:24:04;;;;;;;;;;;0.50;88.00;;;;;;5012908;28;19972;-78
2022/01/11 02:26:29;;;;;;;;;;;0.40;88.00;;;;;;5019945;28;19919;-79
2022/01/11 02:28:54;;;;;;;;;;;0.40;88.10;;;;;;5035382;28;19913;-79
2022/01/11 02:31:20;;;;;;;;;;;0.40;87.90;;;;;;5040627;28;19917;-80
2022/01/11 02:33:48;;;;;;;;;;;0.40;87.70;;;;;;5012717;28;19953;-80
2022/01/11 02:36:15;;;;;;;;;;;0.40;87.60;;;;;;5011273;28;19928;-80
2022/01/11 02:38:40;;;;;;;;;;;0.40;87.10;;;;;;5035135;28;20065;-79
2022/01/11 02:41:06;;;;;;;;;;;0.30;86.80;;;;;;5028551;28;19973;-79
2022/01/11 02:43:31;;;;;;;;;;;0.20;86.70;;;;;;5018006;28;19927;-80
2022/01/11 02:46:00;;;;;;;;;;;0.10;86.50;;;;;;5007078;28;19913;-81
2022/01/11 02:48:26;;;;;;;;;;;0.00;86.70;;;;;;5025557;28;19917;-80
2022/01/11 02:50:51;;;;;;;;;;;0.10;86.60;;;;;;5032009;28;20015;-81
2022/01/11 02:53:17;;;;;;;;;;;0.00;86.40;;;;;;5037191;28;19913;-80
2022/01/11 02:55:43;;;;;;;;;;;0.00;86.50;;;;;;5004559;28;19913;-80
2022/01/11 02:58:09;;;;;;;;;;;0.00;86.80;;;;;;5011734;28;20000;-79
2022/01/11 03:00:38;;;;;;;;;;;0.00;86.90;;;;;;5017587;28;19923;-80
2022/01/11 03:03:11;;;;;;;;;;;-3276.70;87.00;;;;;;5027709;28;19917;-81
2022/01/11 03:05:43;;;;;;;;;;;0.00;87.00;;;;;;5019941;28;19936;-80
2022/01/11 03:08:09;;;;;;;;;;;-3276.70;87.00;;;;;;5016367;28;19960;-81
2022/01/11 03:10:36;;;;;;;;;;;-3276.70;87.00;;;;;;5017526;28;19917;-81
2022/01/11 03:13:03;;;;;;;;;;;-3276.60;86.70;;;;;;5025785;28;19967;-79
2022/01/11 03:15:28;;;;;;;;;;;-3276.70;86.80;;;;;;5035387;28;19913;-81
2022/01/11 03:17:53;;;;;;;;;;;-3276.70;86.80;;;;;;5012876;28;19964;-79
2022/01/11 03:20:19;;;;;;;;;;;-3276.70;86.40;;;;;;5019742;28;20301;-81
2022/01/11 03:22:45;;;;;;;;;;;-3276.60;86.50;;;;;;5035698;28;19918;-81
2022/01/11 03:25:12;;;;;;;;;;;-3276.60;86.80;;;;;;5033931;28;19924;-81
2022/01/11 03:27:38;;;;;;;;;;;-3276.60;86.90;;;;;;5021565;28;19921;-80
2022/01/11 03:30:04;;;;;;;;;;;-3276.60;86.60;;;;;;5019623;28;20197;-80
2022/01/11 03:32:30;;;;;;;;;;;-3276.60;86.10;;;;;;5040880;28;19933;-79
2022/01/11 03:34:55;;;;;;;;;;;-3276.50;85.80;;;;;;5022454;28;20298;-81
2022/01/11 03:37:21;;;;;;;;;;;-3276.50;86.00;;;;;;5034926;28;19918;-79
2022/01/11 03:39:47;;;;;;;;;;;-3276.50;86.50;;;;;;5040356;28;19913;-80
2022/01/11 03:42:13;;;;;;;;;;;-3276.40;86.60;;;;;;5030820;28;19944;-80
2022/01/11 03:44:39;;;;;;;;;;;-3276.40;87.10;;;;;;5026590;28;19920;-81
2022/01/11 03:47:04;;;;;;;;;;;-3276.40;87.00;;;;;;5025845;28;20225;-81
2022/01/11 03:49:31;;;;;;;;;;;-3276.50;86.70;;;;;;5032922;28;19999;-81
2022/01/11 03:51:56;;;;;;;;;;;-3276.50;86.70;;;;;;5026984;28;19914;-80
2022/01/11 03:54:42;;;;;;;;;;;-3276.40;86.60;;;;;;5013014;28;20363;-79
2022/01/11 03:57:07;;;;;;;;;;;-3276.50;86.50;;;;;;5015245;28;19940;-81
2022/01/11 03:59:33;;;;;;;;;;;-3276.50;86.90;;;;;;5014778;28;19913;-79
2022/01/11 04:01:59;;;;;;;;;;;-3276.50;86.50;;;;;;5019654;28;19914;-79
2022/01/11 04:04:26;;;;;;;;;;;-3276.50;86.60;;;;;;5013756;28;19921;-80
2022/01/11 04:06:51;;;;;;;;;;;-3276.50;86.50;;;;;;5021408;28;19913;-79
2022/01/11 04:09:17;;;;;;;;;;;-3276.60;86.90;;;;;;5012238;28;19967;-80
2022/01/11 04:11:42;;;;;;;;;;;-3276.70;87.50;;;;;;5005439;28;20094;-80
2022/01/11 04:14:08;;;;;;;;;;;-3276.70;87.20;;;;;;5007533;28;20306;-80
2022/01/11 04:16:33;;;;;;;;;;;0.00;86.90;;;;;;5032370;28;19939;-81
2022/01/11 04:18:59;;;;;;;;;;;-3276.60;86.90;;;;;;5027169;28;20214;-79
2022/01/11 04:21:24;;;;;;;;;;;-3276.70;87.40;;;;;;5012009;28;20012;-81
2022/01/11 04:23:50;;;;;;;;;;;0.00;87.60;;;;;;5022158;28;19968;-79
2022/01/11 04:26:15;;;;;;;;;;;-3276.70;87.80;;;;;;5008908;28;19981;-81
2022/01/11 04:28:41;;;;;;;;;;;0.00;88.00;;;;;;4997355;28;20462;-80
2022/01/11 04:31:06;;;;;;;;;;;0.00;87.60;;;;;;5026436;28;19964;-79
2022/01/11 04:33:32;;;;;;;;;;;0.00;87.70;;;;;;5005402;28;19914;-80
2022/01/11 04:35:58;;;;;;;;;;;0.00;87.40;;;;;;5022442;28;19936;-80
2022/01/11 04:38:26;;;;;;;;;;;0.00;87.20;;;;;;5007177;28;19921;-80
2022/01/11 04:40:51;;;;;;;;;;;0.00;87.10;;;;;;5014249;28;19923;-80
2022/01/11 04:43:17;;;;;;;;;;;0.00;86.50;;;;;;5010421;28;20372;-80
2022/01/11 04:45:42;;;;;;;;;;;0.10;86.60;;;;;;5005204;28;20008;-79
2022/01/11 04:48:08;;;;;;;;;;;0.00;86.40;;;;;;5011759;28;19952;-80
2022/01/11 04:50:34;;;;;;;;;;;0.10;86.80;;;;;;5008841;28;20644;-80
2022/01/11 04:53:00;;;;;;;;;;;0.00;86.50;;;;;;5040618;28;19920;-80
2022/01/11 04:55:25;;;;;;;;;;;0.00;86.30;;;;;;5015884;28;19947;-79
2022/01/11 04:57:51;;;;;;;;;;;-3276.70;86.20;;;;;;5000184;28;20401;-80
2022/01/11 05:00:17;;;;;;;;;;;-3276.70;86.70;;;;;;5017839;28;19939;-80
2022/01/11 05:02:43;;;;;;;;;;;-3276.60;86.90;;;;;;5017352;28;19925;-80
2022/01/11 05:05:09;;;;;;;;;;;-3276.60;86.90;;;;;;5007973;28;19921;-80
2022/01/11 05:07:34;;;;;;;;;;;-3276.60;87.10;;;;;;5011005;28;19940;-81
2022/01/11 05:10:00;;;;;;;;;;;-3276.60;87.10;;;;;;5008853;28;19956;-80
2022/01/11 05:12:25;;;;;;;;;;;-3276.70;87.10;;;;;;5013081;28;19917;-80
2022/01/11 05:14:51;;;;;;;;;;;-3276.60;86.40;;;;;;5017872;28;19948;-81
2022/01/11 05:17:16;;;;;;;;;;;-3276.70;87.10;;;;;;5014112;28;19917;-80
2022/01/11 05:19:42;;;;;;;;;;;-3276.70;87.10;;;;;;5013506;28;19913;-80
2022/01/11 05:22:07;;;;;;;;;;;-3276.70;87.00;;;;;;5015523;28;19913;-80
2022/01/11 05:24:33;;;;;;;;;;;-3276.70;87.20;;;;;;4997097;28;19925;-81
2022/01/11 05:26:59;;;;;;;;;;;-3276.70;87.30;;;;;;5025784;28;19913;-80
2022/01/11 05:29:24;;;;;;;;;;;0.00;87.70;;;;;;5016184;28;19920;-80
2022/01/11 05:31:50;;;;;;;;;;;0.00;87.70;;;;;;5011826;28;19924;-80
2022/01/11 05:34:15;;;;;;;;;;;0.00;87.50;;;;;;5015107;28;19928;-80
2022/01/11 05:36:41;;;;;;;;;;;0.00;87.10;;;;;;5012626;28;19917;-79
2022/01/11 05:39:06;;;;;;;;;;;0.00;87.30;;;;;;5009935;28;19925;-80
2022/01/11 05:41:32;;;;;;;;;;;0.00;87.50;;;;;;5020614;28;19989;-80
2022/01/11 05:43:58;;;;;;;;;;;0.10;87.40;;;;;;5015262;28;19932;-79
2022/01/11 05:46:24;;;;;;;;;;;0.10;87.30;;;;;;5016129;28;19913;-80
2022/01/11 05:48:49;;;;;;;;;;;0.10;87.40;;;;;;5009382;28;19913;-79
2022/01/11 05:51:15;;;;;;;;;;;0.10;87.50;;;;;;5016662;28;19917;-79
2022/01/11 05:53:42;;;;;;;;;;;0.10;87.30;;;;;;5011523;28;19925;-80
2022/01/11 05:56:08;;;;;;;;;;;0.10;87.10;;;;;;5009524;28;19923;-80
2022/01/11 05:58:34;;;;;;;;;;;0.10;86.60;;;;;;5027238;28;20406;-79
2022/01/11 06:00:59;;;;;;;;;;;0.00;86.40;;;;;;4993876;28;19913;-81
2022/01/11 06:03:25;;;;;;;;;;;0.00;86.90;;;;;;5013588;28;19933;-80
2022/01/11 06:05:51;;;;;;;;;;;-3276.70;86.80;;;;;;5028894;28;19921;-81
2022/01/11 06:08:16;;;;;;;;;;;-3276.70;87.00;;;;;;5001261;28;20067;-81
2022/01/11 06:10:45;;;;;;;;;;;-3276.70;87.20;;;;;;5024439;28;20227;-82
2022/01/11 06:13:11;;;;;;;;;;;0.00;87.00;;;;;;4992538;28;19914;-81
2022/01/11 06:15:37;;;;;;;;;;;0.00;86.80;;;;;;5014621;28;19913;-82
2022/01/11 06:18:03;;;;;;;;;;;-3276.70;86.80;;;;;;5013409;28;19921;-82
2022/01/11 06:20:29;;;;;;;;;;;-3276.70;86.50;;;;;;5019691;28;19935;-82
2022/01/11 06:22:54;;;;;;;;;;;-3276.70;86.90;;;;;;5025183;28;20031;-81
2022/01/11 06:25:20;;;;;;;;;;;-3276.60;86.80;;;;;;5013155;28;19937;-83
2022/01/11 06:27:47;;;;;;;;;;;-3276.60;86.70;;;;;;5015376;28;20400;-84
2022/01/11 06:30:13;;;;;;;;;;;-3276.50;86.70;;;;;;5016476;28;19960;-84
2022/01/11 06:32:38;;;;;;;;;;;-3276.50;86.90;;;;;;5017496;28;19941;-85
2022/01/11 06:35:05;;;;;;;;;;;-3276.50;87.10;;;;;;5009883;28;20118;-84
2022/01/11 06:37:30;;;;;;;;;;;-3276.50;86.90;;;;;;5044057;28;19914;-83
2022/01/11 06:39:56;;;;;;;;;;;-3276.40;86.60;;;;;;5027388;28;19944;-81
2022/01/11 06:42:21;;;;;;;;;;;-3276.30;86.60;;;;;;5025772;28;20331;-84
2022/01/11 06:44:47;;;;;;;;;;;-3276.40;86.80;;;;;;5021150;28;19910;-85
2022/01/11 06:47:12;;;;;;;;;;;-3276.50;87.00;;;;;;5005971;28;20594;-85
2022/01/11 06:49:38;;;;;;;;;;;-3276.40;86.50;;;;;;5021591;28;19986;-85
2022/01/11 06:52:04;;;;;;;;;;;-3276.30;86.60;;;;;;5023819;28;19909;-85
2022/01/11 06:54:30;;;;;;;;;;;-3276.30;86.70;;;;;;5039936;28;19928;-84
2022/01/11 06:56:55;;;;;;;;;;;-3276.40;86.40;;;;;;5020482;28;19937;-84
2022/01/11 06:59:21;;;;;;;;;;;-3276.40;86.40;;;;;;5007641;28;20100;-85
2022/01/11 07:01:46;;;;;;;;;;;-3276.30;85.80;;;;;;5027491;28;19909;-85
2022/01/11 07:04:12;;;;;;;;;;;-3276.40;86.30;;;;;;5072582;28;20011;-84
2022/01/11 07:06:37;;;;;;;;;;;-3276.40;86.00;;;;;;5054197;28;20004;-85
2022/01/11 07:09:03;;;;;;;;;;;-3276.30;85.90;;;;;;5067402;28;19944;-83
2022/01/11 07:11:29;;;;;;;;;;;-3276.30;85.90;;;;;;5027212;28;19909;-85
2022/01/11 07:13:54;;;;;;;;;;;-3276.40;86.10;;;;;;5036747;28;19980;-84
2022/01/11 07:16:20;;;;;;;;;;;-3276.40;86.30;;;;;;5048647;28;19912;-85
2022/01/11 07:18:47;;;;;;;;;;;-3276.40;86.30;;;;;;5024553;28;20007;-84
2022/01/11 07:21:12;;;;;;;;;;;-3276.30;86.50;;;;;;5025372;28;19909;-85
2022/01/11 07:23:38;;;;;;;;;;;-3276.40;86.70;;;;;;5024670;28;20279;-84
2022/01/11 07:26:03;;;;;;;;;;;-3276.50;86.70;;;;;;5010077;28;20424;-84
2022/01/11 07:28:31;;;;;;;;;;;-3276.60;87.00;;;;;;5042992;28;19936;-83
2022/01/11 07:30:56;;;;;;;;;;;-3276.60;86.80;;;;;;5026451;28;19916;-84
2022/01/11 07:33:22;;;;;;;;;;;-3276.60;86.60;;;;;;5029341;28;19913;-85
2022/01/11 07:35:47;;;;;;;;;;;-3276.60;86.50;;;;;;5028052;28;19935;-84
2022/01/11 07:38:13;;;;;;;;;;;-3276.70;86.40;;;;;;5021997;28;19925;-83
2022/01/11 07:40:41;;;;;;;;;;;-3276.60;86.10;;;;;;5028002;28;20321;-83
2022/01/11 07:43:07;;;;;;;;;;;-3276.60;86.40;;;;;;5028310;28;19916;-83
2022/01/11 07:45:34;;;;;;;;;;;-3276.70;86.40;;;;;;5026154;28;19914;-84
2022/01/11 07:48:08;;;;;;;;;;;0.00;86.30;;;;;;5014740;28;19944;-82
2022/01/11 07:50:34;;;;;;;;;;;0.00;86.10;;;;;;5035273;28;19920;-83
2022/01/11 07:52:59;;;;;;;;;;;0.00;86.10;;;;;;5029982;28;19983;-83
2022/01/11 07:55:25;;;;;;;;;;;0.00;85.90;;;;;;5015580;28;19996;-83
2022/01/11 07:57:50;;;;;;;;;;;0.00;86.10;;;;;;5028652;28;19916;-82
2022/01/11 08:00:16;;;;;;;;;;;0.00;86.10;;;;;;5027001;28;19913;-82
2022/01/11 08:02:41;;;;;;;;;;;0.00;86.10;;;;;;5022100;28;20411;-83
2022/01/11 08:05:07;;;;;;;;;;;0.00;85.90;;;;;;5006501;28;20070;-83
2022/01/11 08:07:33;;;;;;;;;;;0.00;86.10;;;;;;5031718;28;19920;-83
2022/01/11 08:09:58;;;;;;;;;;;0.10;86.10;;;;;;5020176;28;19920;-83
2022/01/11 08:12:24;;;;;;;;;;;0.10;86.30;;;;;;5036858;28;19988;-83
2022/01/11 08:14:49;;;;;;;;;;;0.10;86.30;;;;;;5019983;28;19909;-83
2022/01/11 08:17:15;;;;;;;;;;;0.30;86.50;;;;;;5016751;28;20381;-82
2022/01/11 08:19:41;;;;;;;;;;;0.30;86.10;;;;;;5011009;28;19972;-83
2022/01/11 08:22:06;;;;;;;;;;;0.30;86.20;;;;;;4995584;28;20009;-82
2022/01/11 08:24:32;;;;;;;;;;;0.30;86.40;;;;;;5009646;28;19921;-83
2022/01/11 08:26:58;;;;;;;;;;;0.50;86.40;;;;;;5028688;28;19916;-82
2022/01/11 08:29:24;;;;;;;;;;;0.50;86.20;;;;;;5008109;28;19921;-82
2022/01/11 08:31:50;;;;;;;;;;;0.60;86.10;;;;;;4999457;28;20368;-83
2022/01/11 08:34:16;;;;;;;;;;;0.60;86.10;;;;;;5013284;28;20266;-82
2022/01/11 08:36:42;;;;;;;;;;;0.70;86.00;;;;;;5014859;28;19979;-81
2022/01/11 08:39:08;;;;;;;;;;;0.70;85.80;;;;;;5012951;28;19917;-83
2022/01/11 08:41:34;;;;;;;;;;;0.70;85.80;;;;;;5035910;28;20267;-83
2022/01/11 08:43:59;;;;;;;;;;;0.70;85.80;;;;;;5008857;28;19917;-82
2022/01/11 08:46:27;;;;;;;;;;;0.80;85.70;;;;;;5015534;28;19909;-83
2022/01/11 08:48:53;;;;;;;;;;;1.00;85.60;;;;;;5017337;28;19935;-83
2022/01/11 08:51:18;;;;;;;;;;;1.00;85.50;;;;;;5032456;28;19913;-84
2022/01/11 08:53:44;;;;;;;;;;;1.00;85.50;;;;;;5019332;28;19944;-85
2022/01/11 08:56:11;;;;;;;;;;;1.10;85.40;;;;;;5016429;28;19927;-85
2022/01/11 08:58:36;;;;;;;;;;;1.00;85.40;;;;;;5016881;28;20300;-84
2022/01/11 09:01:02;;;;;;;;;;;1.20;85.20;;;;;;5043185;28;19924;-84
2022/01/11 09:03:28;;;;;;;;;;;1.20;85.20;;;;;;5049343;28;20344;-83
2022/01/11 09:05:53;;;;;;;;;;;1.30;85.30;;;;;;5041828;28;19901;-84
2022/01/11 09:08:20;;;;;;;;;;;1.30;85.10;;;;;;5046810;28;20077;-85
2022/01/11 09:10:46;;;;;;;;;;;1.30;85.40;;;;;;5015957;28;19920;-84
2022/01/11 09:13:11;;;;;;;;;;;1.30;85.40;;;;;;5026231;28;19916;-84
2022/01/11 09:15:37;;;;;;;;;;;1.30;85.60;;;;;;5016474;28;20332;-84
2022/01/11 09:18:03;;;;;;;;;;;1.40;85.40;;;;;;5010853;28;19970;-84
2022/01/11 09:20:28;;;;;;;;;;;1.40;85.60;;;;;;5026115;28;19967;-82
2022/01/11 09:22:54;;;;;;;;;;;1.50;85.50;;;;;;5036986;28;20073;-85
2022/01/11 09:25:20;;;;;;;;;;;1.50;85.60;;;;;;5007401;28;19917;-84
2022/01/11 09:27:45;;;;;;;;;;;1.60;85.20;;;;;;5031623;28;19921;-84
2022/01/11 09:30:13;;;;;;;;;;;1.70;85.00;;;;;;5026964;28;19917;-83
2022/01/11 09:32:41;;;;;;;;;;;1.70;84.70;;;;;;5023151;28;19913;-83
2022/01/11 09:35:07;;;;;;;;;;;1.70;84.90;;;;;;5019017;28;19947;-84
2022/01/11 09:37:33;;;;;;;;;;;1.80;85.10;;;;;;5014046;28;19964;-84
2022/01/11 09:39:58;;;;;;;;;;;1.80;85.00;;;;;;5009051;28;19924;-84
2022/01/11 09:42:26;;;;;;;;;;;1.80;84.80;;;;;;5027773;28;19920;-84
2022/01/11 09:44:55;;;;;;;;;;;2.00;84.50;;;;;;5015981;28;19913;-84
2022/01/11 09:47:21;;;;;;;;;;;2.00;84.60;;;;;;5007778;28;19917;-84
2022/01/11 09:49:46;;;;;;;;;;;2.10;84.40;;;;;;5011004;28;19913;-84
2022/01/11 09:52:12;;;;;;;;;;;2.10;84.10;;;;;;5024239;28;19917;-83
2022/01/11 09:54:40;;;;;;;;;;;2.10;84.10;;;;;;5008829;28;19913;-82
2022/01/11 09:57:06;;;;;;;;;;;2.10;84.10;;;;;;5036508;28;19968;-83
2022/01/11 09:59:32;;;;;;;;;;;2.20;84.20;;;;;;5023026;28;19913;-83
2022/01/11 10:01:58;;;;;;;;;;;2.30;84.00;;;;;;5057847;28;19920;-81
2022/01/11 10:04:25;;;;;;;;;;;2.40;83.90;;;;;;5007911;28;19926;-82
2022/01/11 10:06:53;;;;;;;;;;;2.30;83.80;;;;;;5008966;28;19913;-83
2022/01/11 10:09:21;;;;;;;;;;;2.40;83.80;;;;;;5012529;28;20058;-85
2022/01/11 10:11:56;;;;;;;;;;;2.50;83.70;;;;;;5009217;28;19914;-83
2022/01/11 10:14:31;;;;;;;;;;;2.60;83.10;;;;;;5016422;28;19917;-83
2022/01/11 10:17:05;;;;;;;;;;;2.60;83.10;;;;;;5022045;28;20015;-83
2022/01/11 10:19:34;;;;;;;;;;;2.60;83.20;;;;;;5019805;28;19913;-84
2022/01/11 10:22:01;;;;;;;;;;;2.60;83.20;;;;;;5029015;28;19944;-83
2022/01/11 10:24:37;;;;;;;;;;;2.70;82.60;;;;;;4999741;28;19918;-83
2022/01/11 10:27:04;;;;;;;;;;;2.80;81.90;;;;;;5019526;28;19956;-82
2022/01/11 10:29:36;;;;;;;;;;;2.90;81.70;;;;;;5030805;28;19928;-84
2022/01/11 10:32:10;;;;;;;;;;;3.00;81.90;;;;;;5046074;28;19917;-84
2022/01/11 10:34:35;;;;;;;;;;;3.00;81.60;;;;;;5011576;28;19973;-83
2022/01/11 10:37:02;;;;;;;;;;;3.00;82.40;;;;;;5016614;28;19968;-81
2022/01/11 10:39:30;;;;;;;;;;;2.90;82.10;;;;;;5016246;28;19913;-81
2022/01/11 10:41:57;;;;;;;;;;;3.10;82.20;;;;;;5036225;28;19917;-82
2022/01/11 10:44:42;;;;;;;;;;;3.00;81.80;;;;;;5020378;28;19924;-83
2022/01/11 10:47:07;;;;;;;;;;;3.00;82.20;;;;;;5029058;28;19917;-82
2022/01/11 10:49:35;;;;;;;;;;;3.20;82.40;;;;;;5029387;28;20305;-81
2022/01/11 10:52:19;;;;;;;;;;;3.40;81.30;;;;;;5020610;28;19990;-81
2022/01/11 10:54:45;;;;;;;;;;;3.60;80.80;;;;;;5018289;28;19925;-82
2022/01/11 10:57:22;;;;;;;;;;;3.60;80.40;;;;;;5001551;28;19920;-82
2022/01/11 11:00:23;;;;;;;;;;;3.60;80.60;;;;;;5031464;28;19913;-81
2022/01/11 11:02:50;;;;;;;;;;;3.80;79.80;;;;;;4951597;29;19927;-81
2022/01/11 11:05:23;;;;;;;;;;;4.00;79.40;;;;;;5017900;28;20078;-81
2022/01/11 11:07:59;;;;;;;;;;;3.90;79.60;;;;;;5013993;28;19956;-83
2022/01/11 11:10:37;;;;;;;;;;;3.90;79.50;;;;;;5017379;28;19921;-83
2022/01/11 11:13:03;;;;;;;;;;;3.90;79.60;;;;;;5016060;28;19941;-83
2022/01/11 11:15:30;;;;;;;;;;;3.90;80.20;;;;;;5000992;28;19910;-83
2022/01/11 11:17:55;;;;;;;;;;;3.90;80.40;;;;;;5005052;28;19989;-83
2022/01/11 11:20:21;;;;;;;;;;;3.90;80.40;;;;;;5013423;28;19913;-83
2022/01/11 11:22:47;;;;;;;;;;;4.10;80.00;;;;;;5017518;28;20482;-82
2022/01/11 11:25:12;;;;;;;;;;;4.20;79.70;;;;;;5016834;28;19921;-82
2022/01/11 11:27:38;;;;;;;;;;;4.20;80.30;;;;;;5011485;28;19921;-82
2022/01/11 11:30:05;;;;;;;;;;;4.20;80.00;;;;;;5016055;28;19910;-83
2022/01/11 11:32:32;;;;;;;;;;;4.30;80.00;;;;;;5023995;28;19971;-83
2022/01/11 11:34:58;;;;;;;;;;;4.30;80.00;;;;;;5013235;28;19996;-83
2022/01/11 11:37:35;;;;;;;;;;;4.40;80.00;;;;;;5027511;28;19921;-83
2022/01/11 11:40:03;;;;;;;;;;;4.50;79.80;;;;;;5010142;28;19913;-83
2022/01/11 11:42:29;;;;;;;;;;;4.60;79.00;;;;;;5028163;28;20340;-83
2022/01/11 11:44:56;;;;;;;;;;;4.80;78.90;;;;;;5029816;28;19921;-83
2022/01/11 11:47:34;;;;;;;;;;;4.90;78.40;;;;;;5017918;28;19987;-84
2022/01/11 11:50:03;;;;;;;;;;;5.00;78.00;;;;;;5015117;28;19921;-83
2022/01/11 11:52:35;;;;;;;;;;;5.00;77.90;;;;;;5030016;28;20000;-84
2022/01/11 11:55:03;;;;;;;;;;;5.00;78.00;;;;;;5018209;28;19920;-84
2022/01/11 11:57:31;;;;;;;;;;;5.00;78.30;;;;;;5022902;28;19917;-84
2022/01/11 12:00:01;;;;;;;;;;;5.00;78.20;;;;;;5020907;28;20390;-84
2022/01/11 12:02:30;;;;;;;;;;;5.10;77.50;;;;;;5014102;28;19913;-84
2022/01/11 12:04:55;;;;;;;;;;;5.10;77.30;;;;;;5019865;28;19913;-84
2022/01/11 12:07:34;;;;;;;;;;;5.10;77.30;;;;;;5014563;28;19914;-83
2022/01/11 12:10:00;;;;;;;;;;;5.30;76.90;;;;;;5018445;28;20186;-85
2022/01/11 12:12:38;;;;;;;;;;;5.50;75.80;;;;;;5005413;28;19914;-83
2022/01/11 12:15:32;;;;;;;;;;;5.50;75.20;;;;;;5015776;28;19916;-84
2022/01/11 12:17:57;;;;;;;;;;;5.50;75.10;;;;;;5026491;28;20581;-84
2022/01/11 12:20:41;;;;;;;;;;;5.60;75.40;;;;;;5020436;28;19909;-84
2022/01/11 12:23:07;;;;;;;;;;;5.80;74.40;;;;;;5003198;28;20372;-85
2022/01/11 12:25:37;;;;;;;;;;;5.90;74.30;;;;;;4999933;28;19936;-85
2022/01/11 12:28:04;;;;;;;;;;;5.70;74.70;;;;;;5019683;28;19972;-84
2022/01/11 12:30:32;;;;;;;;;;;5.60;74.90;;;;;;5017438;28;19913;-84
2022/01/11 12:33:08;;;;;;;;;;;5.60;75.40;;;;;;5018091;28;19916;-84
2022/01/11 12:35:48;;;;;;;;;;;5.70;75.00;;;;;;5017922;28;19920;-84
2022/01/11 12:38:14;;;;;;;;;;;5.70;75.10;;;;;;5018447;28;19928;-84
2022/01/11 12:40:40;;;;;;;;;;;5.60;75.40;;;;;;5016824;28;19910;-84
2022/01/11 12:43:06;;;;;;;;;;;5.60;75.60;;;;;;5034278;28;19913;-85
2022/01/11 12:45:53;;;;;;;;;;;5.50;76.50;;;;;;5008524;28;20387;-83
2022/01/11 12:48:38;;;;;;;;;;;5.50;75.80;;;;;;5021979;28;19929;-84
2022/01/11 12:51:04;;;;;;;;;;;5.60;75.70;;;;;;5019557;28;19913;-82
2022/01/11 12:53:29;;;;;;;;;;;5.80;74.40;;;;;;5011690;28;19982;-84
2022/01/11 12:55:56;;;;;;;;;;;5.70;74.80;;;;;;5010463;28;19913;-83
2022/01/11 12:58:21;;;;;;;;;;;5.80;74.80;;;;;;5022004;28;19964;-83
2022/01/11 13:00:46;;;;;;;;;;;5.90;73.70;;;;;;5006935;28;19913;-84
2022/01/11 13:03:12;;;;;;;;;;;6.00;73.60;;;;;;5032434;28;19978;-84
2022/01/11 13:05:40;;;;;;;;;;;6.10;73.60;;;;;;5018605;28;20426;-83
2022/01/11 13:08:08;;;;;;;;;;;6.30;73.10;;;;;;5011755;28;20000;-83
2022/01/11 13:10:33;;;;;;;;;;;6.20;73.30;;;;;;5031243;28;19935;-83
2022/01/11 13:13:11;;;;;;;;;;;6.00;74.20;;;;;;5028482;28;19913;-83
2022/01/11 13:15:38;;;;;;;;;;;6.00;73.80;;;;;;5016600;28;20358;-81
2022/01/11 13:18:08;;;;;;;;;;;6.00;73.90;;;;;;5028685;28;19913;-81
2022/01/11 13:20:35;;;;;;;;;;;5.90;74.20;;;;;;5015344;28;20433;-82
2022/01/11 13:23:09;;;;;;;;;;;6.00;74.40;;;;;;5016357;28;20271;-81
2022/01/11 13:25:36;;;;;;;;;;;5.90;74.30;;;;;;4997593;28;19913;-83
2022/01/11 13:28:02;;;;;;;;;;;6.00;73.50;;;;;;5003052;28;19914;-82
2022/01/11 13:30:43;;;;;;;;;;;6.10;73.00;;;;;;5016128;28;19988;-83
2022/01/11 13:33:10;;;;;;;;;;;6.40;72.10;;;;;;5005076;28;19967;-83
2022/01/11 13:35:36;;;;;;;;;;;6.30;71.80;;;;;;4998734;28;19913;-82
2022/01/11 13:38:11;;;;;;;;;;;6.20;71.70;;;;;;5013333;28;19924;-83
2022/01/11 13:40:37;;;;;;;;;;;6.30;72.30;;;;;;5036041;28;19920;-83
2022/01/11 13:43:07;;;;;;;;;;;6.30;71.80;;;;;;5030163;28;19921;-82
2022/01/11 13:45:34;;;;;;;;;;;6.30;71.90;;;;;;5019548;28;19914;-84
2022/01/11 13:48:20;;;;;;;;;;;6.30;71.80;;;;;;5035114;28;20242;-83
2022/01/11 13:50:56;;;;;;;;;;;6.30;71.60;;;;;;5003425;28;19960;-83
2022/01/11 13:53:29;;;;;;;;;;;6.30;71.20;;;;;;5008855;28;20015;-88
2022/01/11 13:56:07;;;;;;;;;;;6.20;71.30;;;;;;5008935;28;20401;-88
2022/01/11 13:58:38;;;;;;;;;;;6.10;71.20;;;;;;5008861;28;19913;-85
2022/01/11 14:01:04;;;;;;;;;;;6.10;71.10;;;;;;5005736;28;19944;-85
2022/01/11 14:03:30;;;;;;;;;;;6.10;71.20;;;;;;5021143;28;19921;-85
2022/01/11 14:05:56;;;;;;;;;;;6.10;70.90;;;;;;5024148;28;19925;-82
2022/01/11 14:08:29;;;;;;;;;;;6.00;71.60;;;;;;5007141;28;19959;-82
2022/01/11 14:11:04;;;;;;;;;;;6.00;71.80;;;;;;5013429;28;19917;-83
2022/01/11 14:13:31;;;;;;;;;;;6.20;71.30;;;;;;5035856;28;20433;-82
2022/01/11 14:15:56;;;;;;;;;;;6.10;71.40;;;;;;5019554;28;19913;-83
2022/01/11 14:18:25;;;;;;;;;;;6.10;71.40;;;;;;5031133;28;19914;-81
2022/01/11 14:21:02;;;;;;;;;;;5.90;72.00;;;;;;5005668;28;19960;-83